createdAt,value
2023-02-12T00:01:53.867Z,101461.19
2023-02-12T00:04:23.030Z,101478.75
2023-02-12T00:06:52.040Z,101464.88
2023-02-12T00:09:21.029Z,101476.22
2023-02-12T00:11:51.695Z,101486.88
2023-02-12T00:14:20.772Z,101489.13
2023-02-12T00:16:49.641Z,101490.94
2023-02-12T00:19:18.908Z,101487.94
2023-02-12T00:21:47.940Z,101504.13
2023-02-12T00:24:17.248Z,101519.72
2023-02-12T00:26:48.221Z,101521.81
2023-02-12T00:29:19.265Z,101525.41
2023-02-12T00:31:47.751Z,101530.34
2023-02-12T00:34:16.911Z,101533.09
2023-02-12T00:36:46.154Z,101533.09
2023-02-12T00:39:16.009Z,101521.72
2023-02-12T00:41:45.012Z,101531.63
2023-02-12T00:44:14.864Z,101527.00
2023-02-12T00:46:45.529Z,101529.53
2023-02-12T00:49:14.814Z,101546.28
2023-02-12T00:51:43.878Z,101554.75
2023-02-12T00:54:12.963Z,101560.84
2023-02-12T00:56:42.198Z,101560.47
2023-02-12T00:59:11.201Z,101559.78
2023-02-12T01:01:41.509Z,101574.03
2023-02-12T01:04:13.086Z,101570.47
2023-02-12T01:06:42.234Z,101571.00
2023-02-12T01:09:12.009Z,101584.41
2023-02-12T01:11:41.752Z,101588.22
2023-02-12T01:14:10.933Z,101591.97
2023-02-12T01:16:41.287Z,101598.25
2023-02-12T01:19:13.482Z,101591.03
2023-02-12T01:21:42.657Z,101590.22
2023-02-12T01:24:11.963Z,101599.22
2023-02-12T01:26:41.149Z,101605.56
2023-02-12T01:29:10.384Z,101614.75
2023-02-12T01:31:40.350Z,101607.22
2023-02-12T01:34:09.831Z,101621.09
2023-02-12T01:36:41.907Z,101631.88
2023-02-12T01:39:12.934Z,101625.25
2023-02-12T01:41:44.063Z,101621.69
2023-02-12T01:44:17.331Z,101624.81
2023-02-12T01:46:49.743Z,101627.22
2023-02-12T01:49:21.670Z,101631.31
2023-02-12T01:51:54.704Z,101626.00
2023-02-12T01:54:25.886Z,101617.38
2023-02-12T01:56:55.342Z,101625.22
2023-02-12T01:59:25.646Z,101637.34
2023-02-12T02:01:55.158Z,101639.22
2023-02-12T02:04:27.380Z,101643.63
2023-02-12T02:06:59.909Z,101655.00
2023-02-12T02:09:30.319Z,101657.88
2023-02-12T02:12:17.069Z,101657.28
2023-02-12T02:14:49.202Z,101662.47
2023-02-12T02:17:20.639Z,101668.69
2023-02-12T02:20:14.868Z,101679.81
2023-02-12T02:22:47.256Z,101677.47
2023-02-12T02:25:41.692Z,101672.53
2023-02-12T02:28:27.668Z,101681.72
2023-02-12T02:30:59.765Z,101698.69
2023-02-12T02:33:38.092Z,101697.59
2023-02-12T02:36:16.177Z,101705.69
2023-02-12T02:38:48.077Z,101703.47
2023-02-12T02:41:22.667Z,101709.75
2023-02-12T02:43:52.613Z,101718.31
2023-02-12T02:46:26.126Z,101722.63
2023-02-12T02:48:59.234Z,101725.44
2023-02-12T02:51:31.680Z,101725.09
2023-02-12T02:54:06.355Z,101731.50
2023-02-12T02:56:38.581Z,101744.22
2023-02-12T02:59:10.077Z,101738.53
2023-02-12T03:01:42.808Z,101754.63
2023-02-12T03:04:17.389Z,101763.56
2023-02-12T03:06:48.521Z,101771.22
2023-02-12T03:09:22.120Z,101774.81
2023-02-12T03:11:51.907Z,101788.66
2023-02-12T03:14:24.860Z,101793.69
2023-02-12T03:16:59.121Z,101795.94
2023-02-12T03:19:32.271Z,101809.09
2023-02-12T03:22:03.835Z,101804.91
2023-02-12T03:24:36.879Z,101808.31
2023-02-12T03:27:09.209Z,101814.25
2023-02-12T03:29:38.347Z,101812.09
2023-02-12T03:32:20.565Z,101809.28
2023-02-12T03:34:52.330Z,101822.53
2023-02-12T03:37:26.543Z,101832.75
2023-02-12T03:39:58.266Z,101828.34
2023-02-12T03:42:35.789Z,101832.22
2023-02-12T03:45:09.976Z,101838.59
2023-02-12T03:47:47.821Z,101852.97
2023-02-12T03:50:20.712Z,101855.66
2023-02-12T03:52:52.326Z,101856.59
2023-02-12T03:55:21.712Z,101860.53
2023-02-12T03:57:54.656Z,101875.78
2023-02-12T04:00:25.068Z,101875.44
2023-02-12T04:02:56.510Z,101883.41
2023-02-12T04:05:28.848Z,101886.44
2023-02-12T04:07:58.925Z,101883.97
2023-02-12T04:10:31.043Z,101881.06
2023-02-12T04:13:05.846Z,101886.94
2023-02-12T04:15:46.773Z,101882.88
2023-02-12T04:18:22.656Z,101890.25
2023-02-12T04:20:56.433Z,101902.66
2023-02-12T04:23:39.260Z,101898.75
2023-02-12T04:26:12.797Z,101896.69
2023-02-12T04:28:45.469Z,101895.69
2023-02-12T04:31:22.378Z,101909.63
2023-02-12T04:34:01.756Z,101908.84
2023-02-12T04:36:35.432Z,101908.53
2023-02-12T04:39:07.619Z,101910.03
2023-02-12T04:41:36.682Z,101912.66
2023-02-12T04:44:20.420Z,101917.19
2023-02-12T04:46:49.081Z,101912.69
2023-02-12T04:49:21.332Z,101912.88
2023-02-12T04:51:50.843Z,101913.47
2023-02-12T04:54:21.095Z,101927.00
2023-02-12T04:56:49.760Z,101925.31
2023-02-12T04:59:18.916Z,101937.41
2023-02-12T05:01:47.718Z,101929.16
2023-02-12T05:04:19.357Z,101941.94
2023-02-12T05:06:48.790Z,101954.03
2023-02-12T05:09:19.682Z,101958.28
2023-02-12T05:11:49.012Z,101953.78
2023-02-12T05:14:18.143Z,101963.53
2023-02-12T05:16:46.940Z,101966.00
2023-02-12T05:19:16.004Z,101970.97
2023-02-12T05:21:46.532Z,101968.94
2023-02-12T05:24:15.717Z,101979.78
2023-02-12T05:26:44.882Z,101983.59
2023-02-12T05:29:13.980Z,101985.13
2023-02-12T05:31:42.928Z,101989.78
2023-02-12T05:34:13.141Z,101986.28
2023-02-12T05:36:42.521Z,101992.22
2023-02-12T05:39:13.390Z,101997.50
2023-02-12T05:41:42.492Z,102007.19
2023-02-12T05:44:12.663Z,102008.34
2023-02-12T05:46:41.428Z,102008.91
2023-02-12T05:49:10.691Z,102025.28
2023-02-12T05:51:39.875Z,102030.69
2023-02-12T05:54:09.420Z,102032.09
2023-02-12T05:56:46.920Z,102026.84
2023-02-12T05:59:18.352Z,102032.09
2023-02-12T06:01:49.131Z,102042.31
2023-02-12T06:04:19.825Z,102048.22
2023-02-12T06:06:49.058Z,102049.91
2023-02-12T06:09:18.475Z,102056.72
2023-02-12T06:11:49.048Z,102068.97
2023-02-12T06:14:19.879Z,102067.66
2023-02-12T06:16:49.676Z,102071.13
2023-02-12T06:19:18.640Z,102079.50
2023-02-12T06:21:47.925Z,102077.97
2023-02-12T06:24:19.532Z,102079.00
2023-02-12T06:26:51.192Z,102087.84
2023-02-12T06:29:20.764Z,102091.47
2023-02-12T06:31:49.913Z,102095.75
2023-02-12T06:34:19.402Z,102084.75
2023-02-12T06:36:49.064Z,102086.97
2023-02-12T06:39:18.718Z,102096.25
2023-02-12T06:41:47.723Z,102102.78
2023-02-12T06:44:18.272Z,102093.81
2023-02-12T06:46:46.874Z,102099.84
2023-02-12T06:49:17.098Z,102096.56
2023-02-12T06:51:45.825Z,102093.41
2023-02-12T06:54:16.725Z,102097.34
2023-02-12T06:56:45.876Z,102104.38
2023-02-12T06:59:17.574Z,102098.00
2023-02-12T07:01:46.254Z,102104.50
2023-02-12T07:04:15.525Z,102116.44
2023-02-12T07:06:45.101Z,102112.81
2023-02-12T07:09:14.231Z,102113.16
2023-02-12T07:11:43.205Z,102115.41
2023-02-12T07:14:15.937Z,102119.50
2023-02-12T07:16:46.163Z,102119.78
2023-02-12T07:19:17.012Z,102127.97
2023-02-12T07:21:46.066Z,102131.09
2023-02-12T07:24:15.412Z,102135.09
2023-02-12T07:26:44.538Z,102135.84
2023-02-12T07:29:13.779Z,102133.44
2023-02-12T07:31:42.993Z,102133.16
2023-02-12T07:34:13.842Z,102128.16
2023-02-12T07:36:43.225Z,102121.25
2023-02-12T07:39:13.517Z,102118.78
2023-02-12T07:41:42.237Z,102119.59
2023-02-12T07:44:13.653Z,102116.59
2023-02-12T07:46:46.942Z,102121.03
2023-02-12T07:49:20.636Z,102124.06
2023-02-12T07:51:50.217Z,102125.09
2023-02-12T07:54:19.456Z,102124.78
2023-02-12T07:56:48.586Z,102125.31
2023-02-12T07:59:18.731Z,102128.13
2023-02-12T08:01:49.375Z,102134.63
2023-02-12T08:04:21.687Z,102149.09
2023-02-12T08:06:53.665Z,102149.97
2023-02-12T08:09:24.065Z,102146.81
2023-02-12T08:11:53.360Z,102148.50
2023-02-12T08:14:23.485Z,102158.97
2023-02-12T08:16:52.863Z,102159.31
2023-02-12T08:19:26.345Z,102158.34
2023-02-12T08:21:56.692Z,102165.63
2023-02-12T08:24:25.762Z,102161.13
2023-02-12T08:26:55.022Z,102169.53
2023-02-12T08:29:25.927Z,102168.28
2023-02-12T08:31:58.124Z,102173.13
2023-02-12T08:34:30.102Z,102174.22
2023-02-12T08:36:59.934Z,102170.19
2023-02-12T08:39:30.933Z,102169.13
2023-02-12T08:42:00.778Z,102166.03
2023-02-12T08:44:30.243Z,102168.16
2023-02-12T08:46:59.251Z,102164.72
2023-02-12T08:49:31.399Z,102162.47
2023-02-12T08:52:01.980Z,102164.38
2023-02-12T08:54:32.837Z,102157.22
2023-02-12T08:57:04.494Z,102154.41
2023-02-12T08:59:33.586Z,102158.72
2023-02-12T09:02:04.406Z,102160.81
2023-02-12T09:04:40.142Z,102166.88
2023-02-12T09:07:10.931Z,102173.59
2023-02-12T09:09:40.020Z,102170.22
2023-02-12T09:12:10.188Z,102175.97
2023-02-12T09:14:40.020Z,102176.75
2023-02-12T09:17:09.060Z,102168.66
2023-02-12T09:19:39.153Z,102174.97
2023-02-12T09:22:09.459Z,102177.97
2023-02-12T09:24:38.850Z,102178.72
2023-02-12T09:27:07.976Z,102185.34
2023-02-12T09:29:37.279Z,102182.31
2023-02-12T09:32:06.812Z,102187.00
2023-02-12T09:34:36.560Z,102193.66
2023-02-12T09:37:07.029Z,102184.66
2023-02-12T09:39:36.652Z,102185.66
2023-02-12T09:42:31.618Z,102198.28
2023-02-12T09:45:07.361Z,102206.84
2023-02-12T09:47:41.992Z,102204.81
2023-02-12T09:50:33.085Z,102213.78
2023-02-12T09:53:03.612Z,102206.78
2023-02-12T09:55:34.563Z,102206.19
2023-02-12T09:58:06.310Z,102209.31
2023-02-12T10:00:35.343Z,102203.19
2023-02-12T10:03:06.099Z,102204.97
2023-02-12T10:05:37.803Z,102204.25
2023-02-12T10:08:27.811Z,102204.22
2023-02-12T10:11:02.744Z,102210.41
2023-02-12T10:13:38.325Z,102207.91
2023-02-12T10:16:12.519Z,102196.69
2023-02-12T10:19:11.042Z,102195.56
2023-02-12T10:21:49.367Z,102202.44
2023-02-12T10:24:45.111Z,102206.97
2023-02-12T10:27:16.552Z,102202.63
2023-02-12T10:29:47.477Z,102202.41
2023-02-12T10:32:25.956Z,102212.41
2023-02-12T10:34:55.364Z,102216.34
2023-02-12T10:37:32.572Z,102199.53
2023-02-12T10:40:08.291Z,102204.69
2023-02-12T10:42:40.458Z,102212.84
2023-02-12T10:45:15.397Z,102200.28
2023-02-12T10:47:45.818Z,102204.25
2023-02-12T10:50:23.625Z,102208.47
2023-02-12T10:52:55.803Z,102214.75
2023-02-12T10:55:28.182Z,102203.34
2023-02-12T10:57:59.949Z,102206.31
2023-02-12T11:00:32.627Z,102200.84
2023-02-12T11:03:07.958Z,102197.09
2023-02-12T11:05:38.308Z,102209.56
2023-02-12T11:08:07.021Z,102208.97
2023-02-12T11:10:40.433Z,102209.00
2023-02-12T11:13:24.525Z,102201.63
2023-02-12T11:15:54.457Z,102205.66
2023-02-12T11:18:26.360Z,102202.09
2023-02-12T11:20:57.997Z,102214.88
2023-02-12T11:23:29.459Z,102219.66
2023-02-12T11:26:01.860Z,102216.63
2023-02-12T11:28:32.384Z,102204.88
2023-02-12T11:31:02.867Z,102200.38
2023-02-12T11:33:34.821Z,102198.56
2023-02-12T11:36:07.892Z,102203.97
2023-02-12T11:38:40.272Z,102207.00
2023-02-12T11:41:24.550Z,102202.94
2023-02-12T11:43:53.789Z,102205.44
2023-02-12T11:46:25.159Z,102191.75
2023-02-12T11:48:55.388Z,102188.94
2023-02-12T11:51:29.356Z,102188.28
2023-02-12T11:54:00.376Z,102180.50
2023-02-12T11:56:43.900Z,102182.44
2023-02-12T11:59:34.968Z,102180.94
2023-02-12T12:02:10.814Z,102187.97
2023-02-12T12:04:40.821Z,102186.19
2023-02-12T12:07:16.475Z,102183.47
2023-02-12T12:09:49.068Z,102181.78
2023-02-12T12:12:22.226Z,102183.03
2023-02-12T12:15:10.985Z,102189.47
2023-02-12T12:18:03.837Z,102193.19
2023-02-12T12:20:37.034Z,102183.22
2023-02-12T12:23:10.943Z,102179.75
2023-02-12T12:25:44.909Z,102160.13
2023-02-12T12:28:29.254Z,102163.81
2023-02-12T12:31:05.976Z,102163.31
2023-02-12T12:33:40.069Z,102161.81
2023-02-12T12:36:37.180Z,102163.97
2023-02-12T12:39:19.877Z,102168.81
2023-02-12T12:42:04.435Z,102171.34
2023-02-12T12:44:42.269Z,102171.50
2023-02-12T12:47:19.262Z,102170.72
2023-02-12T12:50:00.111Z,102159.72
2023-02-12T12:52:55.869Z,102170.16
2023-02-12T12:55:39.758Z,102164.59
2023-02-12T12:58:15.191Z,102159.16
2023-02-12T13:01:00.241Z,102145.09
2023-02-12T13:03:53.019Z,102156.44
2023-02-12T13:06:38.689Z,102159.88
2023-02-12T13:09:26.500Z,102146.44
2023-02-12T13:12:13.559Z,102156.78
2023-02-12T13:14:46.861Z,102144.34
2023-02-12T13:17:20.569Z,102160.25
2023-02-12T13:19:58.457Z,102147.06
2023-02-12T13:22:33.047Z,102153.69
2023-02-12T13:25:08.267Z,102161.22
2023-02-12T13:27:40.611Z,102162.09
2023-02-12T13:30:21.426Z,102156.59
2023-02-12T13:33:02.975Z,102158.09
2023-02-12T13:35:32.930Z,102156.38
2023-02-12T13:38:02.384Z,102165.84
2023-02-12T13:40:32.496Z,102166.41
2023-02-12T13:43:07.696Z,102166.38
2023-02-12T13:45:43.047Z,102162.59
2023-02-12T13:48:26.857Z,102162.81
2023-02-12T13:51:02.005Z,102164.47
2023-02-12T13:53:38.353Z,102149.38
2023-02-12T13:56:13.675Z,102170.50
2023-02-12T13:58:53.688Z,102155.63
2023-02-12T14:01:43.758Z,102150.59
2023-02-12T14:04:26.955Z,102151.06
2023-02-12T14:07:01.058Z,102148.00
2023-02-12T14:09:38.989Z,102145.13
2023-02-12T14:12:10.866Z,102145.00
2023-02-12T14:14:42.304Z,102152.88
2023-02-12T14:17:43.056Z,102157.22
2023-02-12T14:20:26.273Z,102153.56
2023-02-12T14:23:27.338Z,102152.97
2023-02-12T14:26:04.527Z,102151.06
2023-02-12T14:28:43.847Z,102151.84
2023-02-12T14:31:33.464Z,102145.59
2023-02-12T14:34:39.374Z,102148.75
2023-02-12T14:37:37.636Z,102153.47
2023-02-12T14:40:32.182Z,102143.88
2023-02-12T14:43:02.936Z,102145.81
2023-02-12T14:45:35.193Z,102148.28
2023-02-12T14:48:04.804Z,102145.09
2023-02-12T14:50:40.985Z,102139.56
2023-02-12T14:53:27.427Z,102149.81
2023-02-12T14:55:57.142Z,102149.75
2023-02-12T14:58:27.983Z,102153.41
2023-02-12T15:00:58.484Z,102152.47
2023-02-12T15:03:33.323Z,102151.94
2023-02-12T15:06:11.244Z,102151.84
2023-02-12T15:08:46.496Z,102149.75
2023-02-12T15:11:22.723Z,102148.75
2023-02-12T15:13:56.222Z,102153.56
2023-02-12T15:16:46.397Z,102153.22
2023-02-12T15:19:32.970Z,102156.41
2023-02-12T15:22:02.391Z,102154.03
2023-02-12T15:24:33.185Z,102154.84
2023-02-12T15:27:02.421Z,102162.69
2023-02-12T15:29:38.044Z,102158.69
2023-02-12T15:32:09.918Z,102169.59
2023-02-12T15:34:41.928Z,102162.69
2023-02-12T15:37:17.096Z,102174.94
2023-02-12T15:39:48.257Z,102174.06
2023-02-12T15:42:30.205Z,102173.88
2023-02-12T15:45:19.757Z,102176.81
2023-02-12T15:48:01.862Z,102177.56
2023-02-12T15:50:31.748Z,102175.41
2023-02-12T15:53:01.280Z,102174.75
2023-02-12T15:55:36.380Z,102167.81
2023-02-12T15:58:05.544Z,102175.75
2023-02-12T16:00:41.565Z,102185.41
2023-02-12T16:03:21.557Z,102181.25
2023-02-12T16:05:51.316Z,102172.41
2023-02-12T16:08:22.757Z,102174.19
2023-02-12T16:10:54.857Z,102170.16
2023-02-12T16:13:30.195Z,102164.00
2023-02-12T16:16:09.060Z,102162.56
2023-02-12T16:18:38.235Z,102164.94
2023-02-12T16:21:11.863Z,102156.38
2023-02-12T16:23:42.467Z,102156.25
2023-02-12T16:26:18.635Z,102165.56
2023-02-12T16:28:48.952Z,102160.34
2023-02-12T16:31:18.799Z,102157.84
2023-02-12T16:33:49.926Z,102158.97
2023-02-12T16:36:32.946Z,102162.69
2023-02-12T16:39:03.506Z,102154.78
2023-02-12T16:41:34.127Z,102161.06
2023-02-12T16:44:31.240Z,102148.13
2023-02-12T16:47:02.120Z,102149.00
2023-02-12T16:49:31.299Z,102149.78
2023-02-12T16:52:23.049Z,102145.66
2023-02-12T16:54:52.178Z,102150.56
2023-02-12T16:57:22.892Z,102147.84
2023-02-12T16:59:52.136Z,102145.19
2023-02-12T17:02:21.509Z,102142.78
2023-02-12T17:04:50.277Z,102153.50
2023-02-12T17:07:23.224Z,102141.81
2023-02-12T17:09:52.714Z,102147.84
2023-02-12T17:12:23.529Z,102141.72
2023-02-12T17:14:52.729Z,102138.59
2023-02-12T17:17:21.872Z,102133.97
2023-02-12T17:19:50.565Z,102140.63
2023-02-12T17:22:22.876Z,102150.06
2023-02-12T17:24:53.430Z,102152.13
2023-02-12T17:27:24.304Z,102158.28
2023-02-12T17:29:54.601Z,102161.59
2023-02-12T17:32:24.612Z,102157.94
2023-02-12T17:34:53.581Z,102164.63
2023-02-12T17:37:24.677Z,102164.38
2023-02-12T17:39:55.295Z,102159.84
2023-02-12T17:42:25.916Z,102160.06
2023-02-12T17:44:55.306Z,102157.50
2023-02-12T17:47:25.696Z,102181.44
2023-02-12T17:49:54.430Z,102194.50
2023-02-12T17:52:23.616Z,102191.97
2023-02-12T17:54:55.050Z,102188.72
2023-02-12T17:57:25.719Z,102182.19
2023-02-12T17:59:54.799Z,102174.81
2023-02-12T18:02:24.052Z,102171.81
2023-02-12T18:04:53.189Z,102186.00
2023-02-12T18:07:22.342Z,102189.06
2023-02-12T18:09:51.733Z,102174.22
2023-02-12T18:12:20.934Z,102170.22
2023-02-12T18:14:51.816Z,102168.56
2023-02-12T18:17:21.076Z,102167.63
2023-02-12T18:19:50.636Z,102174.25
2023-02-12T18:22:19.855Z,102169.41
2023-02-12T18:24:49.103Z,102161.53
2023-02-12T18:27:18.554Z,102156.59
2023-02-12T18:29:47.710Z,102149.38
2023-02-12T18:32:18.492Z,102138.22
2023-02-12T18:34:47.680Z,102141.78
2023-02-12T18:37:17.997Z,102147.41
2023-02-12T18:39:47.503Z,102146.94
2023-02-12T18:42:16.641Z,102149.22
2023-02-12T18:44:45.956Z,102136.63
2023-02-12T18:47:15.284Z,102142.13
2023-02-12T18:49:46.316Z,102139.09
2023-02-12T18:52:15.530Z,102141.91
2023-02-12T18:54:45.546Z,102140.56
2023-02-12T18:57:14.968Z,102137.69
2023-02-12T18:59:44.391Z,102139.69
2023-02-12T19:02:14.941Z,102137.41
2023-02-12T19:04:43.873Z,102132.50
2023-02-12T19:07:14.504Z,102133.41
2023-02-12T19:09:44.018Z,102129.06
2023-02-12T19:12:13.917Z,102127.03
2023-02-12T19:14:43.266Z,102123.44
2023-02-12T19:17:12.447Z,102126.06
2023-02-12T19:19:41.289Z,102120.75
2023-02-12T19:22:10.446Z,102115.06
2023-02-12T19:24:46.854Z,102115.88
2023-02-12T19:27:16.199Z,102114.91
2023-02-12T19:29:45.608Z,102112.94
2023-02-12T19:32:14.663Z,102112.75
2023-02-12T19:34:43.383Z,102106.25
2023-02-12T19:37:13.997Z,102108.03
2023-02-12T19:39:44.567Z,102108.13
2023-02-12T19:42:15.002Z,102099.41
2023-02-12T19:44:44.736Z,102087.94
2023-02-12T19:47:13.850Z,102086.75
2023-02-12T19:49:42.669Z,102086.31
2023-02-12T19:52:11.671Z,102091.63
2023-02-12T19:54:40.764Z,102085.81
2023-02-12T19:57:13.486Z,102093.31
2023-02-12T19:59:42.827Z,102089.53
2023-02-12T20:02:11.816Z,102086.00
2023-02-12T20:04:41.420Z,102077.56
2023-02-12T20:07:10.602Z,102080.69
2023-02-12T20:09:40.292Z,102081.72
2023-02-12T20:12:10.867Z,102085.31
2023-02-12T20:14:39.923Z,102075.50
2023-02-12T20:17:09.086Z,102071.03
2023-02-12T20:19:37.816Z,102075.13
2023-02-12T20:22:06.898Z,102068.13
2023-02-12T20:24:36.293Z,102071.94
2023-02-12T20:27:05.464Z,102071.41
2023-02-12T20:29:35.904Z,102073.88
2023-02-12T20:32:04.987Z,102071.50
2023-02-12T20:34:48.853Z,102072.06
2023-02-12T20:37:19.472Z,102066.97
2023-02-12T20:39:48.535Z,102061.91
2023-02-12T20:42:17.457Z,102068.72
2023-02-12T20:44:47.989Z,102058.31
2023-02-12T20:47:17.028Z,102049.78
2023-02-12T20:49:45.624Z,102054.19
2023-02-12T20:52:14.697Z,102051.16
2023-02-12T20:54:43.782Z,102050.03
2023-02-12T20:57:12.805Z,102043.03
2023-02-12T20:59:41.959Z,102051.84
2023-02-12T21:02:13.246Z,102050.06
2023-02-12T21:04:41.958Z,102040.19
2023-02-12T21:07:11.028Z,102044.91
2023-02-12T21:09:40.123Z,102035.72
2023-02-12T21:12:09.114Z,102035.25
2023-02-12T21:14:38.330Z,102036.22
2023-02-12T21:17:07.410Z,102035.72
2023-02-12T21:19:37.721Z,102039.84
2023-02-12T21:22:06.676Z,102035.28
2023-02-12T21:24:36.888Z,102037.59
2023-02-12T21:27:05.898Z,102032.19
2023-02-12T21:29:34.932Z,102032.84
2023-02-12T21:32:03.987Z,102042.00
2023-02-12T21:34:33.069Z,102039.56
2023-02-12T21:37:03.512Z,102041.75
2023-02-12T21:39:32.541Z,102036.53
2023-02-12T21:42:03.892Z,102038.28
2023-02-12T21:44:35.469Z,102038.94
2023-02-12T21:47:04.925Z,102034.00
2023-02-12T21:49:33.581Z,102039.34
2023-02-12T21:52:06.665Z,102039.84
2023-02-12T21:54:36.705Z,102040.06
2023-02-12T21:57:05.701Z,102032.50
2023-02-12T21:59:34.682Z,102035.00
2023-02-12T22:02:03.925Z,102023.63
2023-02-12T22:04:34.858Z,102024.03
2023-02-12T22:07:05.529Z,102020.75
2023-02-12T22:09:34.570Z,102017.00
2023-02-12T22:12:03.632Z,102019.00
2023-02-12T22:14:32.830Z,102026.28
2023-02-12T22:17:01.814Z,102026.28
2023-02-12T22:19:30.430Z,102020.47
2023-02-12T22:21:59.382Z,102013.75
2023-02-12T22:24:29.853Z,102008.06
2023-02-12T22:26:58.783Z,102011.66
2023-02-12T22:29:27.885Z,102017.94
2023-02-12T22:31:56.624Z,102023.56
2023-02-12T22:34:25.743Z,102010.66
2023-02-12T22:36:54.798Z,102012.88
2023-02-12T22:39:23.896Z,102012.78
2023-02-12T22:41:54.299Z,102010.97
2023-02-12T22:44:23.352Z,102008.72
2023-02-12T22:46:51.974Z,102011.41
2023-02-12T22:49:21.067Z,102000.03
2023-02-12T22:51:50.424Z,102001.75
2023-02-12T22:54:20.391Z,102000.34
2023-02-12T22:56:52.026Z,101987.53
2023-02-12T22:59:22.725Z,101984.56
2023-02-12T23:01:51.406Z,101984.78
2023-02-12T23:04:20.773Z,101979.59
2023-02-12T23:06:49.886Z,101974.91
2023-02-12T23:09:19.991Z,101980.81
2023-02-12T23:11:49.588Z,101969.81
2023-02-12T23:14:19.640Z,101966.47
2023-02-12T23:16:49.881Z,101961.38
2023-02-12T23:19:18.931Z,101957.75
2023-02-12T23:21:48.019Z,101961.38
2023-02-12T23:24:17.005Z,101950.03
2023-02-12T23:26:46.050Z,101952.16
2023-02-12T23:29:15.168Z,101948.00
2023-02-12T23:31:43.830Z,101955.06
2023-02-12T23:34:14.418Z,101945.16
2023-02-12T23:36:43.386Z,101946.63
2023-02-12T23:39:13.639Z,101939.72
2023-02-12T23:41:42.313Z,101937.72
2023-02-12T23:44:11.490Z,101938.47
2023-02-12T23:46:40.036Z,101926.22
2023-02-12T23:49:09.263Z,101924.63
2023-02-12T23:51:39.729Z,101916.03
2023-02-12T23:54:08.807Z,101908.41
2023-02-12T23:56:37.856Z,101911.41
2023-02-12T23:59:07.089Z,101908.25
